createdAt,value
2023-12-02T00:03:15.614Z,69.23
2023-12-02T00:07:31.978Z,68.27
2023-12-02T00:11:54.178Z,68.75
2023-12-02T00:16:10.947Z,67.70
2023-12-02T00:20:28.186Z,68.83
2023-12-02T00:24:44.484Z,68.79
2023-12-02T00:29:00.714Z,70.45
2023-12-02T00:33:17.146Z,69.08
2023-12-02T00:37:33.382Z,69.85
2023-12-02T00:41:51.042Z,69.13
2023-12-02T00:46:08.080Z,69.05
2023-12-02T00:50:24.428Z,69.01
2023-12-02T00:54:40.690Z,68.72
2023-12-02T00:58:57.081Z,69.67
2023-12-02T01:03:13.392Z,69.85
2023-12-02T01:07:29.728Z,68.78
2023-12-02T01:11:46.020Z,69.87
2023-12-02T01:16:02.340Z,70.24
2023-12-02T01:20:18.651Z,70.60
2023-12-02T01:24:35.023Z,70.90
2023-12-02T01:28:51.286Z,69.05
2023-12-02T01:33:07.642Z,69.81
2023-12-02T01:37:23.871Z,68.76
2023-12-02T01:41:40.565Z,68.23
2023-12-02T01:45:57.605Z,68.42
2023-12-02T01:50:14.924Z,68.66
2023-12-02T01:54:31.473Z,68.41
2023-12-02T01:58:51.573Z,69.24
2023-12-02T02:03:08.004Z,68.82
2023-12-02T02:07:24.418Z,69.22
2023-12-02T02:11:40.618Z,69.05
2023-12-02T02:15:57.033Z,69.78
2023-12-02T02:20:13.694Z,70.20
2023-12-02T02:24:30.406Z,69.80
2023-12-02T02:28:46.616Z,68.68
2023-12-02T02:33:02.942Z,68.99
2023-12-02T02:37:19.230Z,69.07
2023-12-02T02:41:35.881Z,69.18
2023-12-02T02:45:52.178Z,69.25
2023-12-02T02:50:09.165Z,69.66
2023-12-02T02:54:25.443Z,68.06
2023-12-02T02:58:41.738Z,68.80
2023-12-02T03:02:57.917Z,69.27
2023-12-02T03:07:14.309Z,69.35
2023-12-02T03:11:30.556Z,69.35
2023-12-02T03:15:47.046Z,69.94
2023-12-02T03:20:03.287Z,69.34
2023-12-02T03:24:19.661Z,69.07
2023-12-02T03:28:36.021Z,69.18
2023-12-02T03:32:52.486Z,70.35
2023-12-02T03:37:08.980Z,69.66
2023-12-02T03:41:25.257Z,67.92
2023-12-02T03:45:41.885Z,69.09
2023-12-02T03:49:58.218Z,68.39
2023-12-02T03:54:14.475Z,68.36
2023-12-02T03:58:32.311Z,69.92
2023-12-02T04:02:48.630Z,69.67
2023-12-02T04:07:06.284Z,68.89
2023-12-02T04:11:22.573Z,69.93
2023-12-02T04:15:38.903Z,69.41
2023-12-02T04:19:55.220Z,70.39
2023-12-02T04:24:11.680Z,69.95
2023-12-02T04:28:27.869Z,69.43
2023-12-02T04:32:44.232Z,69.67
2023-12-02T04:37:01.197Z,69.77
2023-12-02T04:41:17.652Z,69.30
2023-12-02T04:45:34.025Z,68.22
2023-12-02T04:49:50.442Z,69.05
2023-12-02T04:54:06.787Z,68.91
2023-12-02T04:58:23.698Z,69.22
2023-12-02T05:02:40.128Z,70.72
2023-12-02T05:06:56.644Z,69.61
2023-12-02T05:11:20.622Z,69.06
2023-12-02T05:15:37.205Z,68.53
2023-12-02T05:19:53.781Z,70.62
2023-12-02T05:24:10.407Z,69.43
2023-12-02T05:28:26.667Z,68.58
2023-12-02T05:32:43.509Z,69.22
2023-12-02T05:36:59.860Z,68.67
2023-12-02T05:41:16.208Z,68.74
2023-12-02T05:45:32.534Z,68.73
2023-12-02T05:49:49.082Z,69.75
2023-12-02T05:54:07.627Z,68.27
2023-12-02T05:58:24.437Z,69.03
2023-12-02T06:02:40.669Z,69.44
2023-12-02T06:06:56.988Z,69.34
2023-12-02T06:11:13.302Z,69.13
2023-12-02T06:15:29.705Z,69.79
2023-12-02T06:19:46.170Z,69.14
2023-12-02T06:24:02.587Z,68.79
2023-12-02T06:28:18.949Z,69.91
2023-12-02T06:32:35.279Z,69.34
2023-12-02T06:36:51.609Z,69.52
2023-12-02T06:41:08.292Z,69.14
2023-12-02T06:45:24.564Z,68.87
2023-12-02T06:49:40.950Z,69.15
2023-12-02T06:53:58.508Z,69.44
2023-12-02T06:58:14.973Z,69.07
2023-12-02T07:02:31.141Z,69.41
2023-12-02T07:06:47.503Z,67.86
2023-12-02T07:11:05.248Z,68.64
2023-12-02T07:15:21.560Z,69.25
2023-12-02T07:19:38.055Z,69.58
2023-12-02T07:23:54.576Z,68.87
2023-12-02T07:28:10.831Z,68.65
2023-12-02T07:32:27.168Z,68.48
2023-12-02T07:36:43.586Z,68.50
2023-12-02T07:41:00.037Z,69.12
2023-12-02T07:45:16.490Z,68.39
2023-12-02T07:49:33.520Z,67.84
2023-12-02T07:53:50.321Z,68.21
2023-12-02T07:58:06.656Z,68.20
2023-12-02T08:02:23.202Z,68.62
2023-12-02T08:06:40.632Z,68.68
2023-12-02T08:10:57.030Z,68.27
2023-12-02T08:15:13.485Z,67.81
2023-12-02T08:19:30.138Z,68.40
2023-12-02T08:23:46.533Z,68.36
2023-12-02T08:28:02.712Z,68.28
2023-12-02T08:32:18.976Z,70.85
2023-12-02T08:36:35.289Z,72.06
2023-12-02T08:40:51.711Z,69.48
2023-12-02T08:45:08.722Z,67.96
2023-12-02T08:49:25.109Z,67.67
2023-12-02T08:53:41.541Z,66.97
2023-12-02T08:57:57.770Z,67.91
2023-12-02T09:02:14.171Z,67.57
2023-12-02T09:06:30.581Z,67.47
2023-12-02T09:10:46.983Z,67.94
2023-12-02T09:15:19.054Z,67.03
2023-12-02T09:19:55.606Z,66.96
2023-12-02T09:24:38.764Z,67.25
2023-12-02T09:28:58.170Z,66.68
2023-12-02T09:33:14.631Z,67.90
2023-12-02T09:37:56.604Z,67.85
2023-12-02T09:42:13.389Z,67.05
2023-12-02T09:46:53.667Z,66.49
2023-12-02T09:51:41.502Z,66.95
2023-12-02T09:56:02.654Z,66.54
2023-12-02T10:00:34.254Z,67.70
2023-12-02T10:05:07.913Z,67.44
2023-12-02T10:09:33.076Z,67.25
2023-12-02T10:14:16.263Z,68.47
2023-12-02T10:18:36.485Z,68.26
2023-12-02T10:22:58.695Z,68.04
2023-12-02T10:27:19.741Z,67.58
2023-12-02T10:31:40.144Z,67.92
2023-12-02T10:36:04.349Z,67.66
2023-12-02T10:40:23.201Z,70.98
2023-12-02T10:44:43.824Z,69.24
2023-12-02T10:49:01.462Z,69.24
2023-12-02T10:53:21.984Z,68.04
2023-12-02T10:57:38.443Z,67.44
2023-12-02T11:02:08.214Z,68.71
2023-12-02T11:06:42.087Z,68.71
2023-12-02T11:10:59.797Z,68.60
2023-12-02T11:15:16.439Z,70.15
2023-12-02T11:20:10.994Z,68.82
2023-12-02T11:24:52.100Z,67.80
2023-12-02T11:29:31.663Z,67.67
2023-12-02T11:34:25.488Z,67.39
2023-12-02T11:38:57.240Z,68.00
2023-12-02T11:43:44.331Z,67.53
2023-12-02T11:48:27.960Z,67.74
2023-12-02T11:52:45.424Z,68.73
2023-12-02T11:57:13.095Z,69.87
2023-12-02T12:01:58.397Z,68.04
2023-12-02T12:06:51.889Z,68.63
2023-12-02T12:11:11.586Z,69.98
2023-12-02T12:15:28.023Z,68.80
2023-12-02T12:19:44.304Z,68.98
2023-12-02T12:24:00.638Z,69.48
2023-12-02T12:28:16.852Z,68.68
2023-12-02T12:32:33.615Z,68.55
2023-12-02T12:36:49.958Z,68.55
2023-12-02T12:41:08.783Z,68.78
2023-12-02T12:45:24.969Z,70.20
2023-12-02T12:49:47.465Z,69.08
2023-12-02T12:54:07.565Z,69.31
2023-12-02T12:58:28.192Z,69.03
2023-12-02T13:03:01.601Z,68.45
2023-12-02T13:07:18.571Z,67.61
2023-12-02T13:11:57.537Z,72.06
2023-12-02T13:16:14.585Z,71.08
2023-12-02T13:20:33.630Z,70.63
2023-12-02T13:25:00.830Z,69.70
2023-12-02T13:29:22.566Z,70.06
2023-12-02T13:33:48.160Z,72.69
2023-12-02T13:38:08.272Z,71.97
2023-12-02T13:42:33.637Z,71.48
2023-12-02T13:47:10.215Z,71.20
2023-12-02T13:51:38.793Z,71.19
2023-12-02T13:56:27.815Z,72.77
2023-12-02T14:00:50.705Z,75.16
2023-12-02T14:05:14.906Z,76.80
2023-12-02T14:09:33.408Z,77.87
2023-12-02T14:14:10.660Z,78.92
2023-12-02T14:18:29.997Z,78.70
2023-12-02T14:23:14.158Z,78.77
2023-12-02T14:27:42.549Z,78.71
2023-12-02T14:32:29.037Z,77.40
2023-12-02T14:37:07.368Z,80.73
2023-12-02T14:41:44.680Z,80.12
2023-12-02T14:46:01.349Z,79.54
2023-12-02T14:50:17.576Z,79.03
2023-12-02T14:54:39.603Z,78.92
2023-12-02T14:58:59.950Z,80.40
2023-12-02T15:03:16.330Z,79.53
2023-12-02T15:07:44.618Z,80.18
2023-12-02T15:12:05.202Z,79.50
2023-12-02T15:16:21.547Z,77.93
2023-12-02T15:20:52.486Z,77.25
2023-12-02T15:25:10.965Z,77.07
2023-12-02T15:29:27.307Z,78.23
2023-12-02T15:33:46.207Z,80.70
2023-12-02T15:38:02.537Z,78.84
2023-12-02T15:42:18.874Z,80.76
2023-12-02T15:46:35.696Z,80.22
2023-12-02T15:50:51.935Z,78.72
2023-12-02T15:55:08.506Z,78.46
2023-12-02T15:59:24.880Z,78.66
2023-12-02T16:03:50.880Z,80.24
2023-12-02T16:08:09.699Z,81.33
2023-12-02T16:12:26.041Z,81.92
2023-12-02T16:16:43.149Z,82.53
2023-12-02T16:20:59.666Z,80.60
2023-12-02T16:25:17.361Z,80.81
2023-12-02T16:29:34.683Z,81.39
2023-12-02T16:33:51.684Z,79.86
2023-12-02T16:38:09.483Z,77.15
2023-12-02T16:42:27.471Z,78.14
2023-12-02T16:46:44.833Z,78.10
2023-12-02T16:51:01.417Z,79.02
2023-12-02T16:55:17.946Z,78.25
2023-12-02T16:59:50.122Z,78.17
2023-12-02T17:04:07.116Z,76.55
2023-12-02T17:08:28.829Z,76.33
2023-12-02T17:12:48.585Z,76.09
2023-12-02T17:17:06.741Z,75.46
2023-12-02T17:21:46.433Z,73.77
2023-12-02T17:26:03.041Z,75.67
2023-12-02T17:30:19.361Z,74.17
2023-12-02T17:34:37.621Z,75.44
2023-12-02T17:38:54.021Z,74.95
2023-12-02T17:43:10.253Z,74.55
2023-12-02T17:47:26.617Z,75.76
2023-12-02T17:51:43.965Z,74.80
2023-12-02T17:56:00.337Z,75.82
2023-12-02T18:00:18.966Z,76.47
2023-12-02T18:04:37.685Z,75.33
2023-12-02T18:08:55.307Z,75.84
2023-12-02T18:13:12.022Z,75.16
2023-12-02T18:17:28.334Z,75.13
2023-12-02T18:21:49.439Z,74.19
2023-12-02T18:26:06.974Z,72.10
2023-12-02T18:30:23.301Z,71.99
2023-12-02T18:34:39.753Z,72.27
2023-12-02T18:38:56.141Z,72.01
2023-12-02T18:43:12.494Z,71.26
2023-12-02T18:47:28.827Z,71.82
2023-12-02T18:51:45.112Z,72.40
2023-12-02T18:56:01.470Z,73.50
2023-12-02T19:00:18.137Z,72.03
2023-12-02T19:04:34.578Z,72.58
2023-12-02T19:08:52.071Z,70.61
2023-12-02T19:13:08.539Z,71.53
2023-12-02T19:17:25.331Z,69.39
2023-12-02T19:21:43.244Z,70.83
2023-12-02T19:26:00.036Z,69.90
2023-12-02T19:30:16.778Z,69.26
2023-12-02T19:34:33.257Z,71.93
2023-12-02T19:38:49.695Z,71.75
2023-12-02T19:43:06.002Z,69.43
2023-12-02T19:47:23.398Z,68.97
2023-12-02T19:51:39.732Z,67.85
2023-12-02T19:55:56.941Z,69.80
2023-12-02T20:00:14.332Z,67.25
2023-12-02T20:04:35.090Z,67.35
2023-12-02T20:08:52.375Z,66.08
2023-12-02T20:13:08.720Z,66.21
2023-12-02T20:17:25.769Z,66.14
2023-12-02T20:21:44.134Z,66.76
2023-12-02T20:26:03.571Z,66.96
2023-12-02T20:30:20.521Z,65.47
2023-12-02T20:34:39.491Z,65.06
2023-12-02T20:38:55.931Z,64.79
2023-12-02T20:43:12.222Z,64.51
2023-12-02T20:47:28.733Z,64.54
2023-12-02T20:51:45.061Z,66.16
2023-12-02T20:56:01.514Z,65.14
2023-12-02T21:00:19.415Z,65.58
2023-12-02T21:04:36.032Z,66.54
2023-12-02T21:08:52.467Z,68.14
2023-12-02T21:13:12.190Z,68.96
2023-12-02T21:17:29.292Z,67.71
2023-12-02T21:21:45.741Z,68.24
2023-12-02T21:26:02.051Z,68.60
2023-12-02T21:30:33.778Z,66.97
2023-12-02T21:34:54.566Z,68.01
2023-12-02T21:39:21.398Z,66.99
2023-12-02T21:43:39.320Z,66.27
2023-12-02T21:47:55.978Z,66.36
2023-12-02T21:52:16.609Z,66.26
2023-12-02T21:56:55.626Z,66.75
2023-12-02T22:01:19.823Z,65.35
2023-12-02T22:05:36.770Z,67.09
2023-12-02T22:09:54.337Z,64.34
2023-12-02T22:14:24.286Z,64.92
2023-12-02T22:18:42.109Z,64.13
2023-12-02T22:23:12.575Z,63.70
2023-12-02T22:27:36.225Z,63.15
2023-12-02T22:31:53.129Z,64.53
2023-12-02T22:36:11.172Z,64.49
2023-12-02T22:40:47.030Z,65.41
2023-12-02T22:45:04.801Z,63.27
2023-12-02T22:49:33.924Z,63.01
2023-12-02T22:53:51.394Z,64.34
2023-12-02T22:58:07.745Z,63.85
2023-12-02T23:02:24.224Z,63.75
2023-12-02T23:06:42.778Z,63.43
2023-12-02T23:10:59.896Z,63.91
2023-12-02T23:15:29.868Z,63.96
2023-12-02T23:19:46.866Z,64.60
2023-12-02T23:24:04.464Z,63.29
2023-12-02T23:28:20.898Z,64.88
2023-12-02T23:32:41.020Z,64.11
2023-12-02T23:36:57.893Z,63.10
2023-12-02T23:41:14.676Z,63.81
2023-12-02T23:45:31.377Z,63.00
2023-12-02T23:49:47.820Z,64.40
2023-12-02T23:54:04.139Z,62.94
2023-12-02T23:58:20.457Z,63.31
